Time;durP1;ratioP1;P1;durP2;ratioP2;P2;SDS_P1;SDS_P2;PMS_P1;PMS_P2;Temp;Humidity;BMP_temperature;BMP_pressure;BME280_temperature;BME280_humidity;BME280_pressure;Samples;Min_cycle;Max_cycle;Signal;HPM_P1;HPM_P2
2022/11/30 00:01:18;;;;;;;7.82;6.88;;;;;;;;;;5092860;28;20052;-89
2022/11/30 00:03:46;;;;;;;9.88;7.20;;;;;;;;;;5093098;28;20044;-89
2022/11/30 00:06:15;;;;;;;12.45;7.75;;;;;;;;;;5093025;28;20373;-89
2022/11/30 00:08:42;;;;;;;10.02;7.43;;;;;;;;;;5092710;28;20048;-89
2022/11/30 00:11:14;;;;;;;8.00;7.20;;;;;;;;;;5092248;28;20051;-89
2022/11/30 00:13:41;;;;;;;9.82;7.65;;;;;;;;;;5092769;28;20058;-89
2022/11/30 00:16:09;;;;;;;9.60;8.18;;;;;;;;;;5092648;28;20070;-89
2022/11/30 00:18:37;;;;;;;9.77;7.95;;;;;;;;;;5092639;28;20044;-89
2022/11/30 00:21:07;;;;;;;8.77;7.18;;;;;;;;;;5092444;28;20070;-89
2022/11/30 00:23:36;;;;;;;10.80;7.65;;;;;;;;;;5092963;28;20076;-89
2022/11/30 00:26:05;;;;;;;9.07;7.15;;;;;;;;;;5092424;28;20083;-89
2022/11/30 00:28:33;;;;;;;10.90;7.80;;;;;;;;;;5092509;28;20043;-89
2022/11/30 00:31:01;;;;;;;11.07;8.38;;;;;;;;;;5092668;28;20143;-89
2022/11/30 00:33:31;;;;;;;9.70;7.32;;;;;;;;;;5092609;28;20518;-89
2022/11/30 00:36:00;;;;;;;10.20;7.47;;;;;;;;;;5092671;28;20412;-89
2022/11/30 00:38:27;;;;;;;9.18;7.55;;;;;;;;;;5092593;28;20077;-89
2022/11/30 00:40:58;;;;;;;9.02;7.75;;;;;;;;;;5092376;28;20075;-89
2022/11/30 00:43:25;;;;;;;9.70;7.45;;;;;;;;;;5092444;28;20040;-89
2022/11/30 00:45:53;;;;;;;12.65;8.43;;;;;;;;;;5092435;28;20412;-89
2022/11/30 00:48:20;;;;;;;9.90;7.78;;;;;;;;;;5092433;28;20040;-89
2022/11/30 00:50:48;;;;;;;10.93;8.40;;;;;;;;;;5092319;28;20062;-89
2022/11/30 00:53:16;;;;;;;10.95;8.95;;;;;;;;;;5092345;28;20052;-89
2022/11/30 00:55:44;;;;;;;11.45;8.15;;;;;;;;;;5092100;28;20047;-89
2022/11/30 00:58:11;;;;;;;8.85;7.63;;;;;;;;;;5092554;28;20138;-89
2022/11/30 01:00:39;;;;;;;10.57;7.72;;;;;;;;;;5091992;28;20048;-88
2022/11/30 01:03:06;;;;;;;9.10;7.60;;;;;;;;;;5092268;28;20502;-88
2022/11/30 01:05:34;;;;;;;9.88;7.03;;;;;;;;;;5092153;28;20048;-88
2022/11/30 01:08:02;;;;;;;11.30;7.78;;;;;;;;;;5105253;28;20048;-89
2022/11/30 01:10:29;;;;;;;12.13;7.70;;;;;;;;;;5094413;28;20472;-88
2022/11/30 01:12:56;;;;;;;9.20;7.80;;;;;;;;;;5092328;28;20131;-89
2022/11/30 01:15:24;;;;;;;9.38;7.45;;;;;;;;;;5092001;28;20051;-89
2022/11/30 01:17:51;;;;;;;8.98;7.03;;;;;;;;;;5092283;28;20045;-89
2022/11/30 01:20:19;;;;;;;9.52;7.57;;;;;;;;;;5092027;28;20416;-88
2022/11/30 01:22:46;;;;;;;8.07;7.15;;;;;;;;;;5092279;28;20048;-89
2022/11/30 01:25:13;;;;;;;9.32;7.38;;;;;;;;;;5096520;28;20044;-89
2022/11/30 01:27:41;;;;;;;11.50;7.78;;;;;;;;;;5095582;28;20424;-89
2022/11/30 01:30:08;;;;;;;9.20;6.70;;;;;;;;;;5095579;28;20127;-89
2022/11/30 01:32:36;;;;;;;8.48;7.25;;;;;;;;;;5095789;28;20435;-89
2022/11/30 01:35:03;;;;;;;7.93;7.07;;;;;;;;;;5095626;28;20043;-89
2022/11/30 01:37:30;;;;;;;12.93;7.53;;;;;;;;;;5095289;28;20048;-89
2022/11/30 01:39:58;;;;;;;9.55;7.10;;;;;;;;;;5096583;28;20050;-89
2022/11/30 01:42:25;;;;;;;10.38;8.02;;;;;;;;;;5095523;28;20150;-89
2022/11/30 01:44:56;;;;;;;10.23;8.02;;;;;;;;;;5096158;28;20044;-89
2022/11/30 01:47:26;;;;;;;10.15;7.47;;;;;;;;;;5113473;28;20055;-89
2022/11/30 01:49:57;;;;;;;9.65;7.65;;;;;;;;;;5116578;28;20047;-89
2022/11/30 01:52:29;;;;;;;10.32;7.72;;;;;;;;;;5116712;28;20055;-89
2022/11/30 01:55:00;;;;;;;10.60;7.20;;;;;;;;;;5098665;28;20043;-89
2022/11/30 01:57:33;;;;;;;10.20;7.70;;;;;;;;;;5098583;28;20130;-89
2022/11/30 02:00:02;;;;;;;12.00;8.75;;;;;;;;;;5098156;28;20483;-90
2022/11/30 02:02:33;;;;;;;13.30;9.45;;;;;;;;;;5116541;28;20069;-89
2022/11/30 02:05:01;;;;;;;12.95;8.07;;;;;;;;;;5098591;28;20482;-89
2022/11/30 02:07:28;;;;;;;12.25;8.68;;;;;;;;;;5098460;28;20054;-89
2022/11/30 02:09:55;;;;;;;10.88;7.18;;;;;;;;;;5116242;28;20093;-89
2022/11/30 02:12:33;;;;;;;8.90;7.30;;;;;;;;;;5098221;28;20059;-89
2022/11/30 02:15:04;;;;;;;11.32;8.48;;;;;;;;;;5095865;28;20411;-88
2022/11/30 02:17:55;;;;;;;12.40;7.68;;;;;;;;;;5099459;28;20055;-89
2022/11/30 02:20:33;;;;;;;11.40;8.38;;;;;;;;;;5105240;28;20052;-89
2022/11/30 02:23:19;;;;;;;13.82;9.88;;;;;;;;;;5110246;28;20047;-89
2022/11/30 02:26:02;;;;;;;15.98;10.73;;;;;;;;;;5116154;28;20043;-89
2022/11/30 02:28:46;;;;;;;15.57;11.40;;;;;;;;;;5098171;28;20134;-89
2022/11/30 02:31:16;;;;;;;14.18;9.75;;;;;;;;;;5094614;28;20064;-90
2022/11/30 02:33:44;;;;;;;14.57;9.57;;;;;;;;;;5097067;28;20052;-89
2022/11/30 02:36:12;;;;;;;13.38;9.38;;;;;;;;;;5097685;28;20043;-89
2022/11/30 02:38:39;;;;;;;14.18;9.85;;;;;;;;;;5097535;28;20058;-89
2022/11/30 02:41:07;;;;;;;11.48;8.85;;;;;;;;;;5097786;28;20086;-89
2022/11/30 02:43:35;;;;;;;16.77;10.90;;;;;;;;;;5097707;28;20492;-88
2022/11/30 02:46:08;;;;;;;19.60;12.60;;;;;;;;;;5097211;28;20054;-88
2022/11/30 02:48:35;;;;;;;;;;;;;;;;;;5098129;28;20085;-89
2022/11/30 02:51:04;;;;;;;18.13;10.95;;;;;;;;;;5115255;28;19931;-89
2022/11/30 02:53:31;;;;;;;15.18;10.43;;;;;;;;;;5097619;28;20055;-89
2022/11/30 02:55:59;;;;;;;10.07;7.95;;;;;;;;;;5097287;28;20054;-89
2022/11/30 02:58:26;;;;;;;11.85;8.52;;;;;;;;;;5097389;28;20047;-89
2022/11/30 03:00:54;;;;;;;11.30;8.95;;;;;;;;;;5097041;28;20047;-88
2022/11/30 03:03:21;;;;;;;11.95;8.77;;;;;;;;;;5097353;28;20066;-90
2022/11/30 03:05:49;;;;;;;11.80;8.73;;;;;;;;;;5099420;28;20044;-89
2022/11/30 03:08:16;;;;;;;12.27;9.32;;;;;;;;;;5097401;28;20047;-88
2022/11/30 03:10:43;;;;;;;13.23;9.07;;;;;;;;;;5097176;28;20055;-89
2022/11/30 03:13:11;;;;;;;11.80;8.73;;;;;;;;;;5097247;28;20530;-89
2022/11/30 03:15:38;;;;;;;12.30;8.93;;;;;;;;;;5096864;28;20047;-89
2022/11/30 03:18:06;;;;;;;11.05;7.78;;;;;;;;;;5096999;28;20047;-89
2022/11/30 03:20:33;;;;;;;10.07;8.13;;;;;;;;;;5097212;28;20048;-89
2022/11/30 03:23:01;;;;;;;12.63;9.25;;;;;;;;;;5097386;28;20050;-88
2022/11/30 03:25:29;;;;;;;9.82;8.60;;;;;;;;;;5096892;28;20046;-89
2022/11/30 03:27:56;;;;;;;13.38;9.75;;;;;;;;;;5096909;28;20495;-88
2022/11/30 03:30:23;;;;;;;20.00;12.40;;;;;;;;;;5114612;28;20051;-89
2022/11/30 03:32:51;;;;;;;19.23;13.15;;;;;;;;;;5097226;28;20043;-88
2022/11/30 03:35:19;;;;;;;18.48;12.57;;;;;;;;;;5107471;28;20057;-89
2022/11/30 03:37:47;;;;;;;12.20;9.57;;;;;;;;;;5102737;28;20047;-89
2022/11/30 03:40:14;;;;;;;11.05;8.73;;;;;;;;;;5102916;28;20142;-89
2022/11/30 03:42:41;;;;;;;12.50;8.88;;;;;;;;;;5096454;28;20342;-89
2022/11/30 03:45:09;;;;;;;11.18;9.02;;;;;;;;;;5098887;28;20047;-89
2022/11/30 03:47:36;;;;;;;12.75;9.18;;;;;;;;;;5095874;28;20060;-89
2022/11/30 03:50:04;;;;;;;13.38;9.45;;;;;;;;;;5096912;28;20086;-89
2022/11/30 03:52:31;;;;;;;19.58;13.23;;;;;;;;;;5096479;28;20050;-89
2022/11/30 03:54:58;;;;;;;17.45;12.55;;;;;;;;;;5096446;28;20405;-89
2022/11/30 03:57:26;;;;;;;20.63;13.10;;;;;;;;;;5096243;28;20048;-89
2022/11/30 03:59:53;;;;;;;20.95;13.93;;;;;;;;;;5096148;28;20047;-89
2022/11/30 04:02:21;;;;;;;17.23;12.95;;;;;;;;;;5096493;28;20043;-89
2022/11/30 04:04:48;;;;;;;20.10;13.45;;;;;;;;;;5096621;28;20048;-89
2022/11/30 04:07:16;;;;;;;19.20;12.90;;;;;;;;;;5096319;28;20047;-89
2022/11/30 04:09:43;;;;;;;18.40;12.95;;;;;;;;;;5095986;28;20040;-89
2022/11/30 04:12:11;;;;;;;20.85;14.30;;;;;;;;;;5096542;28;20466;-89
2022/11/30 04:14:38;;;;;;;24.52;17.02;;;;;;;;;;5096366;28;20556;-89
2022/11/30 04:17:06;;;;;;;23.77;15.52;;;;;;;;;;5096517;28;20395;-89
2022/11/30 04:19:33;;;;;;;20.90;14.75;;;;;;;;;;5096096;28;20047;-89
2022/11/30 04:22:01;;;;;;;23.17;15.40;;;;;;;;;;5096112;28;20059;-89
2022/11/30 04:24:28;;;;;;;21.38;14.70;;;;;;;;;;5095969;28;20047;-89
2022/11/30 04:26:55;;;;;;;22.60;14.93;;;;;;;;;;5096113;28;20047;-89
2022/11/30 04:29:23;;;;;;;25.23;15.38;;;;;;;;;;5096157;28;20122;-88
2022/11/30 04:31:50;;;;;;;21.50;14.50;;;;;;;;;;5096068;28;20054;-89
2022/11/30 04:34:18;;;;;;;21.90;15.30;;;;;;;;;;5096619;28;20055;-89
2022/11/30 04:36:45;;;;;;;25.25;15.90;;;;;;;;;;5096213;28;20051;-89
2022/11/30 04:39:12;;;;;;;25.02;16.65;;;;;;;;;;5096656;28;20063;-88
2022/11/30 04:41:40;;;;;;;21.77;14.48;;;;;;;;;;5096362;28;20051;-89
2022/11/30 04:44:07;;;;;;;22.98;15.48;;;;;;;;;;5096379;28;20050;-89
2022/11/30 04:46:37;;;;;;;18.65;13.95;;;;;;;;;;5096698;28;20051;-89
2022/11/30 04:49:05;;;;;;;19.77;14.50;;;;;;;;;;5106108;28;20071;-89
2022/11/30 04:51:32;;;;;;;16.77;13.05;;;;;;;;;;5102418;28;20456;-89
2022/11/30 04:53:59;;;;;;;22.38;13.32;;;;;;;;;;5096055;28;20056;-89
2022/11/30 04:56:27;;;;;;;19.25;12.77;;;;;;;;;;5095845;28;20039;-88
2022/11/30 04:58:54;;;;;;;19.27;13.57;;;;;;;;;;5099720;28;20434;-89
2022/11/30 05:01:21;;;;;;;16.58;12.50;;;;;;;;;;5099610;28;20044;-89
2022/11/30 05:03:49;;;;;;;19.50;12.57;;;;;;;;;;5099811;28;20473;-89
2022/11/30 05:06:16;;;;;;;19.33;12.52;;;;;;;;;;5099911;28;20048;-89
2022/11/30 05:08:43;;;;;;;16.92;12.10;;;;;;;;;;5100141;28;20087;-89
2022/11/30 05:11:11;;;;;;;17.63;12.75;;;;;;;;;;5099629;28;20058;-89
2022/11/30 05:13:38;;;;;;;16.02;12.60;;;;;;;;;;5100188;28;20055;-89
2022/11/30 05:16:06;;;;;;;18.27;13.40;;;;;;;;;;5100506;28;20046;-88
2022/11/30 05:18:33;;;;;;;20.65;13.38;;;;;;;;;;5099790;28;20461;-89
2022/11/30 05:21:01;;;;;;;16.88;12.20;;;;;;;;;;5099402;28;20047;-89
2022/11/30 05:23:28;;;;;;;21.58;12.25;;;;;;;;;;5098823;28;20048;-89
2022/11/30 05:25:56;;;;;;;17.02;12.07;;;;;;;;;;5099297;28;20055;-89
2022/11/30 05:28:23;;;;;;;19.98;12.48;;;;;;;;;;5099198;28;20475;-88
2022/11/30 05:30:51;;;;;;;17.27;12.52;;;;;;;;;;5099030;28;20048;-89
2022/11/30 05:33:18;;;;;;;16.75;12.20;;;;;;;;;;5099376;28;20093;-89
2022/11/30 05:35:46;;;;;;;18.90;13.00;;;;;;;;;;5099397;28;20052;-89
2022/11/30 05:38:13;;;;;;;22.67;13.25;;;;;;;;;;5099232;28;20051;-89
2022/11/30 05:40:40;;;;;;;18.85;13.75;;;;;;;;;;5098619;28;20051;-89
2022/11/30 05:43:07;;;;;;;18.35;12.95;;;;;;;;;;5098651;28;20056;-88
2022/11/30 05:45:35;;;;;;;21.00;13.10;;;;;;;;;;5116217;28;20050;-90
2022/11/30 05:48:02;;;;;;;18.67;12.75;;;;;;;;;;5116710;28;20082;-89
2022/11/30 05:50:30;;;;;;;20.23;13.18;;;;;;;;;;5116708;28;20299;-89
2022/11/30 05:52:59;;;;;;;16.80;12.88;;;;;;;;;;5098841;28;20050;-89
2022/11/30 05:55:28;;;;;;;16.58;12.20;;;;;;;;;;5098564;28;20065;-89
2022/11/30 05:57:55;;;;;;;17.17;12.27;;;;;;;;;;5098654;28;20130;-89
2022/11/30 06:00:22;;;;;;;16.27;11.88;;;;;;;;;;5116784;28;20059;-90
2022/11/30 06:02:54;;;;;;;15.43;12.10;;;;;;;;;;5111129;28;20038;-90
2022/11/30 06:05:22;;;;;;;13.82;11.65;;;;;;;;;;5123467;28;20055;-89
2022/11/30 06:07:49;;;;;;;19.85;13.07;;;;;;;;;;5098156;28;20080;-89
2022/11/30 06:10:17;;;;;;;18.45;12.65;;;;;;;;;;5115524;28;20050;-90
2022/11/30 06:12:44;;;;;;;21.00;13.13;;;;;;;;;;5098494;28;20403;-89
2022/11/30 06:15:11;;;;;;;16.60;11.57;;;;;;;;;;5098522;28;20054;-89
2022/11/30 06:17:38;;;;;;;18.27;12.57;;;;;;;;;;5116268;28;20054;-89
2022/11/30 06:20:06;;;;;;;14.80;11.43;;;;;;;;;;5097995;28;20046;-90
2022/11/30 06:22:34;;;;;;;16.05;11.88;;;;;;;;;;5098106;28;20054;-90
2022/11/30 06:25:01;;;;;;;16.25;11.25;;;;;;;;;;5098235;28;20083;-89
2022/11/30 06:27:31;;;;;;;16.23;11.15;;;;;;;;;;5098031;28;20043;-89
2022/11/30 06:29:58;;;;;;;16.70;11.68;;;;;;;;;;5098115;28;20051;-88
2022/11/30 06:32:26;;;;;;;20.10;12.20;;;;;;;;;;5098107;28;20052;-89
2022/11/30 06:34:54;;;;;;;18.27;12.90;;;;;;;;;;5115911;28;20047;-89
2022/11/30 06:37:21;;;;;;;15.15;11.63;;;;;;;;;;5098272;28;20087;-89
2022/11/30 06:39:48;;;;;;;15.80;11.88;;;;;;;;;;5097943;28;20403;-89
2022/11/30 06:42:33;;;;;;;17.00;12.13;;;;;;;;;;5115627;28;20134;-89
2022/11/30 06:45:00;;;;;;;20.10;11.82;;;;;;;;;;5115617;28;20514;-89
2022/11/30 06:47:27;;;;;;;15.30;11.13;;;;;;;;;;5097789;28;20093;-89
2022/11/30 06:49:55;;;;;;;17.23;12.65;;;;;;;;;;5097548;28;20052;-90
2022/11/30 06:52:22;;;;;;;17.80;12.50;;;;;;;;;;5097986;28;20408;-89
2022/11/30 06:54:49;;;;;;;17.60;12.23;;;;;;;;;;5115636;28;20419;-89
2022/11/30 06:57:16;;;;;;;14.88;11.88;;;;;;;;;;5097563;28;20048;-89
2022/11/30 06:59:45;;;;;;;15.43;11.27;;;;;;;;;;5097697;28;20048;-89
2022/11/30 07:02:13;;;;;;;17.65;11.70;;;;;;;;;;5097690;28;20050;-89
2022/11/30 07:04:44;;;;;;;16.58;12.00;;;;;;;;;;5097856;28;20043;-89
2022/11/30 07:07:13;;;;;;;19.77;13.35;;;;;;;;;;5114297;28;20048;-90
2022/11/30 07:09:41;;;;;;;16.25;13.13;;;;;;;;;;5097705;28;20097;-89
2022/11/30 07:12:08;;;;;;;81.38;41.25;;;;;;;;;;5097177;28;20067;-89
2022/11/30 07:14:36;;;;;;;106.43;48.00;;;;;;;;;;5087556;28;20055;-90
2022/11/30 07:17:03;;;;;;;52.70;26.55;;;;;;;;;;5107005;28;20050;-90
2022/11/30 07:19:33;;;;;;;25.95;14.98;;;;;;;;;;5081141;28;20138;-89
2022/11/30 07:22:00;;;;;;;19.75;13.52;;;;;;;;;;5076369;28;20055;-89
2022/11/30 07:27:14;;;;;;;35.22;21.75;;;;;;;;;;5095381;28;20055;-89
2022/11/30 07:29:42;;;;;;;22.27;14.48;;;;;;;;;;5076877;28;20480;-88
2022/11/30 07:32:09;;;;;;;20.88;13.98;;;;;;;;;;5079362;28;20054;-89
2022/11/30 07:34:37;;;;;;;53.90;30.17;;;;;;;;;;5085175;28;20044;-89
2022/11/30 07:37:04;;;;;;;95.28;47.85;;;;;;;;;;5087445;28;20043;-89
2022/11/30 07:39:31;;;;;;;76.15;38.20;;;;;;;;;;5086804;28;20147;-89
2022/11/30 07:41:58;;;;;;;22.63;13.98;;;;;;;;;;5101525;28;20044;-89
2022/11/30 07:44:26;;;;;;;17.00;11.68;;;;;;;;;;5086551;28;20062;-89
2022/11/30 07:46:53;;;;;;;17.92;11.63;;;;;;;;;;5084255;28;20052;-89
2022/11/30 07:49:20;;;;;;;27.88;16.63;;;;;;;;;;5103352;28;20047;-89
2022/11/30 07:51:47;;;;;;;66.03;35.88;;;;;;;;;;5105014;28;20048;-89
2022/11/30 07:54:15;;;;;;;54.75;29.58;;;;;;;;;;5086878;28;20081;-89
2022/11/30 07:56:42;;;;;;;32.17;18.88;;;;;;;;;;5096517;28;20043;-89
2022/11/30 07:59:10;;;;;;;14.85;11.15;;;;;;;;;;5097387;28;20480;-89
2022/11/30 08:01:37;;;;;;;12.55;9.57;;;;;;;;;;5097955;28;20075;-89
2022/11/30 08:04:04;;;;;;;51.22;25.55;;;;;;;;;;5115588;28;20079;-89
2022/11/30 08:06:32;;;;;;;51.70;26.33;;;;;;;;;;5116516;28;20101;-89
2022/11/30 08:09:02;;;;;;;40.00;22.95;;;;;;;;;;5115037;28;20089;-90
2022/11/30 08:11:30;;;;;;;77.82;39.22;;;;;;;;;;5114251;28;20040;-89
2022/11/30 08:13:57;;;;;;;34.40;19.73;;;;;;;;;;5097655;28;20050;-88
2022/11/30 08:16:26;;;;;;;28.88;17.95;;;;;;;;;;5117601;28;20079;-89
2022/11/30 08:18:57;;;;;;;37.33;22.73;;;;;;;;;;5116314;28;20135;-89
2022/11/30 08:21:24;;;;;;;41.92;24.83;;;;;;;;;;5096931;28;20052;-89
2022/11/30 08:23:52;;;;;;;29.00;17.15;;;;;;;;;;5095815;28;20054;-89
2022/11/30 08:26:21;;;;;;;26.30;15.93;;;;;;;;;;5113880;28;20084;-89
2022/11/30 08:28:49;;;;;;;33.47;19.25;;;;;;;;;;5098901;28;20064;-90
2022/11/30 08:31:21;;;;;;;29.60;17.08;;;;;;;;;;5114262;28;20126;-89
2022/11/30 08:33:49;;;;;;;39.00;20.27;;;;;;;;;;5100837;28;20126;-89
2022/11/30 08:36:17;;;;;;;29.08;16.02;;;;;;;;;;5118011;28;20043;-89
2022/11/30 08:38:45;;;;;;;48.55;25.48;;;;;;;;;;5100015;28;20471;-89
2022/11/30 08:41:13;;;;;;;60.40;30.88;;;;;;;;;;5117804;28;20043;-89
2022/11/30 08:43:40;;;;;;;89.28;43.55;;;;;;;;;;5099799;28;20478;-89
2022/11/30 08:46:08;;;;;;;29.60;19.35;;;;;;;;;;5099647;28;20495;-89
2022/11/30 08:48:56;;;;;;;45.55;20.88;;;;;;;;;;5102037;28;20043;-89
2022/11/30 08:51:43;;;;;;;23.77;13.32;;;;;;;;;;5103074;28;20066;-89
2022/11/30 08:54:30;;;;;;;48.53;23.00;;;;;;;;;;5102564;28;20043;-89
2022/11/30 08:56:58;;;;;;;87.65;41.15;;;;;;;;;;5099856;28;20062;-89
2022/11/30 08:59:25;;;;;;;54.50;29.58;;;;;;;;;;5095573;28;20048;-89
2022/11/30 09:01:53;;;;;;;52.75;27.90;;;;;;;;;;5100557;28;20399;-89
2022/11/30 09:04:20;;;;;;;28.00;14.55;;;;;;;;;;5100393;28;20051;-88
2022/11/30 09:06:57;;;;;;;25.85;16.90;;;;;;;;;;5118279;28;20044;-89
2022/11/30 09:09:33;;;;;;;35.80;22.30;;;;;;;;;;5117693;28;20051;-89
2022/11/30 09:12:03;;;;;;;38.83;22.30;;;;;;;;;;5099829;28;20046;-89
2022/11/30 09:14:30;;;;;;;66.38;39.30;;;;;;;;;;5099558;28;20062;-89
2022/11/30 09:16:58;;;;;;;20.95;13.40;;;;;;;;;;5096367;28;20051;-89
2022/11/30 09:19:26;;;;;;;24.02;14.70;;;;;;;;;;5089618;28;20073;-89
2022/11/30 09:21:54;;;;;;;24.17;12.60;;;;;;;;;;5087127;28;20044;-89
2022/11/30 09:24:21;;;;;;;23.65;14.18;;;;;;;;;;5087494;28;20040;-88
2022/11/30 09:26:49;;;;;;;35.42;22.27;;;;;;;;;;5105089;28;20403;-89
2022/11/30 09:29:18;;;;;;;33.90;18.55;;;;;;;;;;5089579;28;20443;-89
2022/11/30 09:31:45;;;;;;;34.47;18.77;;;;;;;;;;5088535;28;20407;-89
2022/11/30 09:34:13;;;;;;;34.60;17.60;;;;;;;;;;5089196;28;20407;-89
2022/11/30 09:36:40;;;;;;;36.40;20.58;;;;;;;;;;5088818;28;20142;-89
2022/11/30 09:39:11;;;;;;;32.00;18.13;;;;;;;;;;5084071;28;20065;-89
2022/11/30 09:41:42;;;;;;;45.45;23.48;;;;;;;;;;5097945;28;20051;-89
2022/11/30 09:44:20;;;;;;;20.50;13.10;;;;;;;;;;5116858;28;20047;-89
2022/11/30 09:46:54;;;;;;;20.05;13.38;;;;;;;;;;5099797;28;20048;-89
2022/11/30 09:49:27;;;;;;;19.02;12.70;;;;;;;;;;5098744;28;20082;-88
2022/11/30 09:51:57;;;;;;;65.67;37.23;;;;;;;;;;5099121;28;20102;-89
2022/11/30 09:54:34;;;;;;;42.67;27.00;;;;;;;;;;5099110;28;20043;-89
2022/11/30 09:57:20;;;;;;;62.35;36.97;;;;;;;;;;5098833;28;20053;-89
2022/11/30 09:59:54;;;;;;;22.27;14.85;;;;;;;;;;5098661;28;20044;-89
2022/11/30 10:02:22;;;;;;;15.80;12.10;;;;;;;;;;5098702;28;20047;-89
2022/11/30 10:04:50;;;;;;;24.73;17.42;;;;;;;;;;5098476;28;20062;-89
2022/11/30 10:07:23;;;;;;;20.30;12.30;;;;;;;;;;5098410;28;20070;-89
2022/11/30 10:09:59;;;;;;;17.67;12.98;;;;;;;;;;5098630;28;20506;-89
2022/11/30 10:12:53;;;;;;;16.65;12.43;;;;;;;;;;5101687;28;20048;-89
2022/11/30 10:15:27;;;;;;;17.27;13.25;;;;;;;;;;5098137;28;20055;-90
2022/11/30 10:17:56;;;;;;;20.17;13.63;;;;;;;;;;5096945;28;20052;-88
2022/11/30 10:20:42;;;;;;;21.23;16.17;;;;;;;;;;5096562;28;20048;-89
2022/11/30 10:23:09;;;;;;;19.58;14.35;;;;;;;;;;5095473;28;20056;-88
2022/11/30 10:25:46;;;;;;;20.17;14.68;;;;;;;;;;5078484;28;20052;-89
2022/11/30 10:28:19;;;;;;;21.38;15.05;;;;;;;;;;5078306;28;20052;-89
2022/11/30 10:31:10;;;;;;;22.83;15.93;;;;;;;;;;5081301;28;20048;-89
2022/11/30 10:33:44;;;;;;;26.35;16.15;;;;;;;;;;5078404;28;20098;-89
2022/11/30 10:36:25;;;;;;;30.92;19.55;;;;;;;;;;5077383;28;20476;-88
2022/11/30 10:38:56;;;;;;;27.92;16.13;;;;;;;;;;5077927;28;20044;-88
2022/11/30 10:41:30;;;;;;;29.05;16.42;;;;;;;;;;5078411;28;20477;-89
2022/11/30 10:44:03;;;;;;;32.55;16.83;;;;;;;;;;5078239;28;20389;-88
2022/11/30 10:46:37;;;;;;;26.98;17.23;;;;;;;;;;5078521;28;20052;-88
2022/11/30 10:49:06;;;;;;;24.58;17.70;;;;;;;;;;5062375;28;20147;-88
2022/11/30 10:51:36;;;;;;;24.98;16.77;;;;;;;;;;5078717;28;20048;-88
2022/11/30 10:54:11;;;;;;;25.60;16.25;;;;;;;;;;5078834;28;20056;-88
2022/11/30 10:56:39;;;;;;;26.80;17.35;;;;;;;;;;5088839;28;20059;-88
2022/11/30 10:59:15;;;;;;;28.23;17.77;;;;;;;;;;5087029;28;20056;-87
2022/11/30 11:01:42;;;;;;;26.05;16.02;;;;;;;;;;5078042;28;20052;-88
2022/11/30 11:04:26;;;;;;;24.85;16.15;;;;;;;;;;5079334;28;20428;-88
2022/11/30 11:07:13;;;;;;;28.38;17.55;;;;;;;;;;5061325;28;20130;-88
2022/11/30 11:09:50;;;;;;;27.25;17.48;;;;;;;;;;5093973;28;20040;-89
2022/11/30 11:12:18;;;;;;;31.40;17.02;;;;;;;;;;5078670;28;20067;-89
2022/11/30 11:14:46;;;;;;;25.85;16.40;;;;;;;;;;5094286;27;20076;-90
2022/11/30 11:17:23;;;;;;;27.30;16.23;;;;;;;;;;5120374;27;20130;-88
2022/11/30 11:19:51;;;;;;;32.90;16.40;;;;;;;;;;5118172;27;20542;-89
2022/11/30 11:22:22;;;;;;;25.38;15.90;;;;;;;;;;5135567;27;20055;-88
2022/11/30 11:25:10;;;;;;;40.08;17.23;;;;;;;;;;5135426;27;20051;-89
2022/11/30 11:27:37;;;;;;;30.75;16.67;;;;;;;;;;5135697;27;20042;-89
2022/11/30 11:30:17;;;;;;;28.17;16.55;;;;;;;;;;5118478;27;20050;-89
2022/11/30 11:33:00;;;;;;;31.98;17.67;;;;;;;;;;5117747;27;20110;-88
2022/11/30 11:35:28;;;;;;;;;;;;;;;;;;5116934;27;20509;-90
2022/11/30 11:37:55;;;;;;;27.40;16.65;;;;;;;;;;5117514;27;20355;-89
2022/11/30 11:40:23;;;;;;;28.52;16.77;;;;;;;;;;5117341;27;20089;-89
2022/11/30 11:42:52;;;;;;;26.35;16.65;;;;;;;;;;5117569;27;20051;-89
2022/11/30 11:45:28;;;;;;;27.73;16.45;;;;;;;;;;5117324;27;20054;-90
2022/11/30 11:48:08;;;;;;;28.20;17.10;;;;;;;;;;5117283;27;20126;-89
2022/11/30 11:50:38;;;;;;;38.55;17.45;;;;;;;;;;5117568;27;20043;-89
2022/11/30 11:53:38;;;;;;;28.17;17.52;;;;;;;;;;5119892;27;20051;-89
2022/11/30 11:56:25;;;;;;;25.42;15.02;;;;;;;;;;5097373;28;20044;-89
2022/11/30 11:59:01;;;;;;;31.17;16.90;;;;;;;;;;5086710;28;20044;-89
2022/11/30 12:01:35;;;;;;;26.55;15.40;;;;;;;;;;5086073;28;20044;-89
2022/11/30 12:04:20;;;;;;;28.73;16.73;;;;;;;;;;5087917;28;20056;-89
2022/11/30 12:06:50;;;;;;;24.50;16.27;;;;;;;;;;5088776;28;20047;-89
2022/11/30 12:09:27;;;;;;;27.42;15.70;;;;;;;;;;5090519;28;20123;-88
2022/11/30 12:11:55;;;;;;;27.85;15.35;;;;;;;;;;5099380;28;20077;-89
2022/11/30 12:14:25;;;;;;;25.25;15.90;;;;;;;;;;5106069;28;20127;-88
2022/11/30 12:17:11;;;;;;;27.13;15.57;;;;;;;;;;5085210;28;20415;-88
2022/11/30 12:19:46;;;;;;;35.30;22.80;;;;;;;;;;5086821;28;20051;-89
2022/11/30 12:22:42;;;;;;;30.83;16.35;;;;;;;;;;5104677;28;20055;-89
2022/11/30 12:25:29;;;;;;;26.58;15.18;;;;;;;;;;5084860;28;20131;-88
2022/11/30 12:27:56;;;;;;;26.80;15.50;;;;;;;;;;5084601;28;20083;-89
2022/11/30 12:30:43;;;;;;;22.27;14.63;;;;;;;;;;5104098;28;20043;-88
2022/11/30 12:33:33;;;;;;;31.98;18.40;;;;;;;;;;5093324;28;20456;-88
2022/11/30 12:36:24;;;;;;;38.03;23.60;;;;;;;;;;5093429;28;20412;-89
2022/11/30 12:39:00;;;;;;;22.65;13.65;;;;;;;;;;5076212;28;20047;-89
2022/11/30 12:41:45;;;;;;;24.48;12.85;;;;;;;;;;5075738;28;20473;-89
2022/11/30 12:44:27;;;;;;;18.92;13.10;;;;;;;;;;5076122;28;20079;-89
2022/11/30 12:47:05;;;;;;;36.88;15.88;;;;;;;;;;5075841;28;20052;-89
2022/11/30 12:49:51;;;;;;;30.40;17.98;;;;;;;;;;5075545;28;20058;-89
2022/11/30 12:52:40;;;;;;;36.00;22.35;;;;;;;;;;5075718;28;20393;-90
2022/11/30 12:55:15;;;;;;;24.58;14.90;;;;;;;;;;5093375;28;20488;-88
2022/11/30 12:57:48;;;;;;;21.83;13.65;;;;;;;;;;5075617;28;20052;-89
2022/11/30 13:00:18;;;;;;;21.13;13.25;;;;;;;;;;5093353;28;20048;-88
2022/11/30 13:03:04;;;;;;;28.75;14.65;;;;;;;;;;5075639;28;20048;-89
2022/11/30 13:05:34;;;;;;;34.63;14.63;;;;;;;;;;5075449;28;20056;-90
2022/11/30 13:08:07;;;;;;;22.55;14.32;;;;;;;;;;5074310;28;20048;-89
2022/11/30 13:10:44;;;;;;;20.50;13.57;;;;;;;;;;5075866;28;20048;-89
2022/11/30 13:13:17;;;;;;;24.27;14.10;;;;;;;;;;5075872;28;20063;-89
2022/11/30 13:15:45;;;;;;;23.20;15.05;;;;;;;;;;5075697;28;20048;-89
2022/11/30 13:18:21;;;;;;;32.92;16.42;;;;;;;;;;5076761;28;20185;-89
2022/11/30 13:20:55;;;;;;;34.75;15.93;;;;;;;;;;5097338;28;20040;-89
2022/11/30 13:23:35;;;;;;;27.40;16.45;;;;;;;;;;5082190;28;20403;-89
2022/11/30 13:26:06;;;;;;;23.90;14.93;;;;;;;;;;5104526;28;20150;-90
2022/11/30 13:28:41;;;;;;;22.67;14.93;;;;;;;;;;5079426;28;20526;-89
2022/11/30 13:31:10;;;;;;;26.70;15.98;;;;;;;;;;5096818;28;20101;-89
2022/11/30 13:33:50;;;;;;;23.40;15.18;;;;;;;;;;5097027;28;20048;-89
2022/11/30 13:36:20;;;;;;;27.52;16.10;;;;;;;;;;5078853;28;20557;-89
2022/11/30 13:39:08;;;;;;;25.58;16.15;;;;;;;;;;5079260;28;20051;-89
2022/11/30 13:41:36;;;;;;;28.45;16.13;;;;;;;;;;5079128;28;20123;-89
2022/11/30 13:44:04;;;;;;;35.40;16.42;;;;;;;;;;5062291;28;20135;-89
2022/11/30 13:46:31;;;;;;;37.13;17.63;;;;;;;;;;5096455;28;20098;-89
2022/11/30 13:49:11;;;;;;;29.80;17.00;;;;;;;;;;5096885;28;20385;-89
2022/11/30 13:51:41;;;;;;;31.58;17.15;;;;;;;;;;5078723;28;20407;-89
2022/11/30 13:54:27;;;;;;;27.52;16.85;;;;;;;;;;5079066;28;20048;-89
2022/11/30 13:56:54;;;;;;;27.17;16.13;;;;;;;;;;5078727;28;20127;-89
2022/11/30 13:59:22;;;;;;;32.95;18.55;;;;;;;;;;5078595;28;20059;-89
2022/11/30 14:01:50;;;;;;;25.50;16.42;;;;;;;;;;5078285;28;20051;-89
2022/11/30 14:04:17;;;;;;;32.72;18.25;;;;;;;;;;5077894;28;20571;-89
2022/11/30 14:06:49;;;;;;;30.45;17.85;;;;;;;;;;5095855;28;20480;-89
2022/11/30 14:09:39;;;;;;;30.52;18.63;;;;;;;;;;5095988;28;20075;-89
2022/11/30 14:12:25;;;;;;;29.85;17.33;;;;;;;;;;5068566;28;20055;-89
2022/11/30 14:14:52;;;;;;;30.13;18.13;;;;;;;;;;5081453;28;20058;-89
2022/11/30 14:17:21;;;;;;;38.67;18.23;;;;;;;;;;5099692;28;20075;-89
2022/11/30 14:19:52;;;;;;;31.60;17.52;;;;;;;;;;5078032;28;20389;-89
2022/11/30 14:22:20;;;;;;;29.40;17.25;;;;;;;;;;5094114;28;20048;-89
2022/11/30 14:24:48;;;;;;;29.67;17.48;;;;;;;;;;5077830;28;20412;-89
2022/11/30 14:27:21;;;;;;;30.33;17.05;;;;;;;;;;5095681;28;20052;-89
2022/11/30 14:29:52;;;;;;;30.02;16.67;;;;;;;;;;5094723;28;20500;-89
2022/11/30 14:32:25;;;;;;;24.75;15.95;;;;;;;;;;5077947;28;20054;-89
2022/11/30 14:34:55;;;;;;;27.65;16.00;;;;;;;;;;5095642;28;20056;-89
2022/11/30 14:37:24;;;;;;;25.50;15.38;;;;;;;;;;5079361;28;20506;-90
2022/11/30 14:39:55;;;;;;;25.73;16.10;;;;;;;;;;5087612;28;20052;-89
2022/11/30 14:42:24;;;;;;;24.88;16.08;;;;;;;;;;5077399;28;20105;-89
2022/11/30 14:44:52;;;;;;;28.50;16.80;;;;;;;;;;5077258;28;20059;-89